Campanya Meteocatpedra
Centenari de l'SMC: 100 anys mirant el cel

Dades de l'estació automàtica el Masroig

?
?

Resum diari

22:00 TU
Dades diàries de l'estació meteorològica
Temperatura mitjana 18.8 °C
Temperatura màxima 26.0 °C 13:21 TU
Temperatura mínima 11.6 °C 4:32 TU
Humitat relativa mitjana 59%
Precipitació acumulada 0.0 mm
Ratxa màxima del vent (2 m) 28.4 km/h - 275º 12:57 TU

El tram horari està expressat en Temps Universal (TU). Cal sumar una hora en horari d'hivern i dues en horari d'estiu per passar a l'hora oficial.

el Masroig

Metadades estació meteorològica
Municipi El Masroig
Comarca Priorat
Altitud 141 m
Data alta 20.06.2000
Estat actual Operativa
Dades de període
Període
TU
TM
°C
TX
°C
TN
°C
HRM
%
PPT
mm
VVM (2 m)
km/h
DVM (2 m)
graus
VVX (2 m)
km/h
00:00 - 00:30 13.4 13.6 13.2 85 0.0 3.6 123 6.1
00:30 - 01:00 13.2 13.5 13.0 85 0.0 3.6 114 6.8
01:00 - 01:30 13.1 13.3 12.9 85 0.0 3.2 117 6.8
01:30 - 02:00 13.0 13.3 12.7 86 0.0 3.2 127 7.9
02:00 - 02:30 12.8 12.9 12.6 87 0.0 2.9 117 5.4
02:30 - 03:00 12.5 12.7 12.2 88 0.0 4.3 110 6.8
03:00 - 03:30 12.1 12.3 11.9 90 0.0 2.9 123 6.5
03:30 - 04:00 12.0 12.2 11.9 89 0.0 3.6 114 6.8
04:00 - 04:30 11.8 11.9 11.7 90 0.0 3.2 116 5.0
04:30 - 05:00 11.8 12.2 11.6 91 0.0 2.5 113 6.5
05:00 - 05:30 13.1 13.8 12.1 84 0.0 2.2 104 3.6
05:30 - 06:00 11.9 12.4 11.7 90 0.0 2.5 120 5.0
06:00 - 06:30 12.8 14.6 11.7 88 0.0 2.5 116 4.7
06:30 - 07:00 14.9 16.0 13.7 79 0.0 1.4 105 3.6
07:00 - 07:30 17.0 17.6 16.1 72 0.0 1.8 108 3.6
07:30 - 08:00 18.5 19.8 17.6 63 0.0 1.8 91 6.5
08:00 - 08:30 19.4 20.3 18.9 59 0.0 2.2 239 8.3
08:30 - 09:00 20.0 20.6 19.5 58 0.0 3.6 250 16.9
09:00 - 09:30 20.8 21.1 20.3 56 0.0 6.8 286 16.2
09:30 - 10:00 21.2 21.6 20.9 55 0.0 8.3 286 19.4
10:00 - 10:30 21.7 22.1 21.4 53 0.0 5.4 297 14.8
10:30 - 11:00 22.1 23.3 21.6 51 0.0 7.2 303 22.0
11:00 - 11:30 23.5 23.8 23.2 47 0.0 8.3 302 18.7
11:30 - 12:00 23.8 24.3 23.1 45 0.0 7.9 300 23.0
12:00 - 12:30 24.3 25.1 23.5 43 0.0 9.0 294 22.7
12:30 - 13:00 24.2 24.7 23.5 42 0.0 9.0 302 28.4
13:00 - 13:30 24.9 26.0 23.6 39 0.0 10.1 290 27.7
13:30 - 14:00 25.3 25.6 25.1 37 0.0 12.6 286 26.3
14:00 - 14:30 25.5 25.8 25.2 36 0.0 10.8 296 24.8
14:30 - 15:00 25.3 25.6 25.2 35 0.0 10.1 290 21.2
15:00 - 15:30 25.2 25.4 25.0 34 0.0 9.7 295 24.8
15:30 - 16:00 24.8 24.9 24.5 33 0.0 9.7 290 23.8
16:00 - 16:30 24.4 24.7 23.9 33 0.0 9.7 298 24.5
16:30 - 17:00 23.6 23.8 23.2 35 0.0 10.1 307 23.0
17:00 - 17:30 22.7 23.2 22.2 37 0.0 10.1 309 22.0
17:30 - 18:00 21.7 22.2 21.2 40 0.0 9.7 305 22.3
18:00 - 18:30 20.9 21.3 20.5 41 0.0 8.6 305 26.3
18:30 - 19:00 20.5 20.6 20.2 43 0.0 9.7 303 24.1
19:00 - 19:30 19.9 20.1 19.6 44 0.0 6.8 307 16.2
19:30 - 20:00 19.2 19.5 18.8 47 0.0 6.1 298 14.0
20:00 - 20:30 18.6 18.8 18.4 50 0.0 4.0 292 10.4
20:30 - 21:00 18.5 18.7 18.1 50 0.0 4.7 293 18.7
21:00 - 21:30 17.6 18.0 17.0 54 0.0 4.0 285 14.8
21:30 - 22:00 17.0 17.3 16.8 58 0.0 5.8 291 17.3
22:00 - 22:30 16.4 16.8 16.0 62 0.0 2.9 274 10.4

Les dades en taronja només han passat un control de qualitat automàtic. Resta pendent la seva validació definitiva.